createdAt,value
2018-11-22T12:18:02.516Z,57.35
2018-11-22T12:20:31.750Z,58.48
2018-11-22T12:23:01.002Z,53.28
2018-11-22T12:25:30.477Z,60.10
2018-11-22T12:28:01.189Z,60.95
2018-11-22T12:30:32.753Z,53.48
2018-11-22T12:33:06.305Z,51.48
2018-11-22T12:35:41.929Z,57.27
2018-11-22T12:38:17.223Z,50.52
2018-11-22T12:40:47.353Z,51.85
2018-11-22T12:43:16.545Z,53.30
2018-11-22T12:45:45.797Z,51.60
2018-11-22T12:48:15.013Z,53.73
2018-11-22T12:50:44.308Z,50.20
2018-11-22T12:53:13.511Z,49.30
2018-11-22T12:55:42.708Z,48.73
2018-11-22T12:58:11.902Z,47.33
2018-11-22T13:00:41.126Z,45.17
2018-11-22T13:03:10.396Z,45.40
2018-11-22T13:05:39.577Z,45.78
2018-11-22T13:08:08.746Z,46.05
2018-11-22T13:10:37.942Z,45.90
2018-11-22T13:13:07.309Z,47.17
2018-11-22T13:15:36.508Z,43.73
2018-11-22T13:18:06.029Z,43.02
2018-11-22T13:20:35.273Z,42.55
2018-11-22T13:23:04.703Z,41.23
2018-11-22T13:25:33.974Z,48.85
2018-11-22T13:28:03.204Z,43.68
2018-11-22T13:30:32.414Z,38.78
2018-11-22T13:33:01.595Z,40.08
2018-11-22T13:35:30.781Z,45.38
2018-11-22T13:37:59.958Z,42.67
2018-11-22T13:40:29.151Z,42.55
2018-11-22T13:42:58.323Z,43.13
2018-11-22T13:45:28.638Z,45.38
2018-11-22T13:47:58.538Z,49.30
2018-11-22T13:50:29.322Z,46.90
2018-11-22T13:53:01.034Z,46.45
2018-11-22T13:55:30.242Z,48.73
2018-11-22T13:57:59.438Z,45.70
2018-11-22T14:00:29.870Z,43.60
2018-11-22T14:03:02.459Z,40.00
2018-11-22T14:05:31.791Z,45.33
2018-11-22T14:08:01.228Z,43.10
2018-11-22T14:10:30.447Z,46.75
2018-11-22T14:12:59.657Z,42.67
2018-11-22T14:15:30.276Z,46.58
2018-11-22T14:18:01.799Z,48.80
2018-11-22T14:20:32.354Z,46.05
2018-11-22T14:23:01.577Z,39.45
2018-11-22T14:25:31.152Z,40.90
2018-11-22T14:28:00.491Z,43.45
2018-11-22T14:30:32.419Z,46.80
2018-11-22T14:33:01.638Z,52.73
2018-11-22T14:35:30.874Z,48.83
2018-11-22T14:38:00.091Z,43.15
2018-11-22T14:40:30.761Z,45.85
2018-11-22T14:42:59.977Z,41.18
2018-11-22T14:45:29.962Z,44.65
2018-11-22T14:48:00.567Z,46.70
2018-11-22T14:50:38.485Z,46.92
2018-11-22T14:53:20.679Z,48.68
2018-11-22T14:55:49.918Z,46.33
2018-11-22T14:58:19.109Z,48.95
2018-11-22T15:10:57.012Z,48.13
2018-11-22T15:13:26.265Z,53.02
2018-11-22T15:15:55.466Z,48.52
2018-11-22T15:18:24.666Z,44.95
2018-11-22T15:21:00.872Z,48.13
2018-11-22T15:23:23.477Z,44.30
2018-11-22T15:25:52.701Z,46.83
2018-11-22T15:28:21.954Z,45.20
2018-11-22T15:30:51.202Z,49.35
2018-11-22T15:33:20.404Z,45.90
2018-11-22T15:35:49.654Z,44.50
2018-11-22T15:38:19.769Z,43.10
2018-11-22T15:40:48.984Z,44.10
2018-11-22T15:43:18.382Z,48.05
2018-11-22T15:45:47.642Z,43.30
2018-11-22T15:48:16.931Z,41.20
2018-11-22T15:50:46.154Z,47.98
2018-11-22T15:53:15.354Z,50.58
2018-11-22T15:55:44.566Z,49.20
2018-11-22T15:58:13.816Z,48.83
2018-11-22T16:00:43.013Z,52.75
2018-11-22T16:03:12.314Z,51.75
2018-11-22T16:05:41.585Z,51.80
2018-11-22T16:08:11.107Z,44.73
2018-11-22T16:10:40.325Z,56.15
2018-11-22T16:13:12.002Z,51.95
2018-11-22T16:15:45.069Z,50.70
2018-11-22T16:18:14.322Z,51.02
2018-11-22T16:20:43.536Z,51.13
2018-11-22T16:23:12.753Z,50.10
2018-11-22T16:25:41.941Z,56.28
2018-11-22T16:28:11.214Z,48.63
2018-11-22T16:30:41.097Z,54.40
2018-11-22T16:33:10.326Z,63.58
2018-11-22T16:35:39.554Z,60.30
2018-11-22T16:38:09.002Z,57.70
2018-11-22T16:40:38.215Z,53.95
2018-11-22T16:43:07.701Z,56.80
2018-11-22T16:45:38.002Z,52.48
2018-11-22T16:48:10.254Z,49.95
2018-11-22T16:50:41.097Z,49.40
2018-11-22T16:53:10.331Z,54.27
2018-11-22T16:55:39.572Z,52.10
2018-11-22T16:58:09.522Z,53.65
2018-11-22T17:00:39.742Z,51.73
2018-11-22T17:03:13.159Z,53.87
2018-11-22T17:05:43.280Z,80.17
2018-11-22T17:08:12.550Z,56.00
2018-11-22T17:10:42.497Z,59.58
2018-11-22T17:13:11.762Z,51.42
2018-11-22T17:15:41.887Z,48.78
2018-11-22T17:18:11.689Z,35.38
2018-11-22T17:20:40.954Z,38.25
2018-11-22T17:23:10.324Z,31.55
2018-11-22T17:25:39.542Z,33.15
2018-11-22T17:28:09.747Z,28.98
2018-11-22T17:30:43.447Z,32.08
2018-11-22T17:33:12.744Z,31.25
2018-11-22T17:35:42.529Z,27.52
2018-11-22T17:38:12.605Z,27.30
2018-11-22T17:40:46.280Z,20.48
2018-11-22T17:43:15.728Z,21.40
2018-11-22T17:45:46.257Z,18.70
2018-11-22T17:48:15.486Z,17.62
2018-11-22T17:50:45.906Z,18.55
2018-11-22T17:53:15.514Z,17.40
2018-11-22T17:55:44.987Z,19.75
2018-11-22T17:58:14.760Z,15.48
2018-11-22T18:00:50.276Z,12.40
2018-11-22T18:03:20.509Z,15.15
2018-11-22T18:05:50.439Z,15.38
2018-11-22T18:08:20.155Z,14.83
2018-11-22T18:10:49.370Z,12.88
2018-11-22T18:13:18.581Z,15.53
2018-11-22T18:15:53.029Z,15.45
2018-11-22T18:18:22.245Z,17.40
2018-11-22T18:20:51.486Z,15.55
2018-11-22T18:23:20.735Z,16.00
2018-11-22T18:25:49.933Z,16.52
2018-11-22T18:28:19.181Z,16.45
2018-11-22T18:30:48.416Z,16.30
2018-11-22T18:33:17.705Z,17.62
2018-11-22T18:35:46.936Z,21.50
2018-11-22T18:38:16.206Z,17.45
2018-11-22T18:40:45.734Z,17.50
2018-11-22T18:43:14.967Z,19.12
2018-11-22T18:45:45.529Z,19.50
2018-11-22T18:48:16.095Z,17.85
2018-11-22T18:50:46.919Z,16.48
2018-11-22T18:53:15.178Z,19.25
2018-11-22T18:55:44.438Z,18.07
2018-11-22T18:58:13.683Z,17.35
2018-11-22T19:00:44.337Z,20.30
2018-11-22T19:03:15.918Z,16.45
2018-11-22T19:05:45.146Z,17.10
2018-11-22T19:08:14.381Z,16.90
2018-11-22T19:10:44.177Z,17.98
2018-11-22T19:13:14.008Z,17.48
2018-11-22T19:15:44.825Z,18.67
2018-11-22T19:18:14.461Z,19.40
2018-11-22T19:20:44.573Z,18.65
2018-11-22T19:23:14.785Z,18.70
2018-11-22T19:25:43.989Z,20.68
2018-11-22T19:28:13.203Z,20.77
2018-11-22T19:30:45.030Z,19.77
2018-11-22T19:33:15.898Z,17.65
2018-11-22T19:35:46.710Z,17.60
2018-11-22T19:38:16.549Z,18.35
2018-11-22T19:40:45.813Z,16.87
2018-11-22T19:43:15.067Z,15.23
2018-11-22T19:45:46.041Z,16.32
2018-11-22T19:48:15.277Z,17.32
2018-11-22T19:50:44.469Z,15.63
2018-11-22T19:53:14.857Z,16.77
2018-11-22T19:55:44.369Z,16.90
2018-11-22T19:58:14.935Z,15.90
2018-11-22T20:00:44.333Z,16.87
2018-11-22T20:03:13.565Z,15.78
2018-11-22T20:05:43.550Z,16.07
2018-11-22T20:08:14.719Z,17.10
2018-11-22T20:10:44.903Z,14.63
2018-11-22T20:13:14.122Z,16.05
2018-11-22T20:15:43.310Z,14.85
2018-11-22T20:18:12.877Z,15.45
2018-11-22T20:20:43.036Z,16.00
2018-11-22T20:23:11.348Z,16.95
2018-11-22T20:25:40.560Z,16.67
2018-11-22T20:28:09.776Z,14.45
2018-11-22T20:30:40.849Z,16.30
2018-11-22T20:33:10.067Z,16.50
2018-11-22T20:35:39.272Z,16.50
2018-11-22T20:38:08.629Z,14.98
2018-11-22T20:40:37.813Z,17.00
2018-11-22T20:43:07.071Z,15.53
2018-11-22T20:45:40.763Z,15.30
2018-11-22T20:48:07.246Z,17.37
2018-11-22T20:50:36.838Z,16.12
2018-11-22T20:53:06.578Z,14.40
2018-11-22T20:55:37.190Z,15.93
2018-11-22T20:58:07.252Z,16.07
2018-11-22T21:00:39.903Z,16.05
2018-11-22T21:03:09.133Z,16.45
2018-11-22T21:05:38.330Z,16.48
2018-11-22T21:08:07.525Z,18.90
2018-11-22T21:10:36.754Z,15.78
2018-11-22T21:13:06.148Z,17.35
2018-11-22T21:15:36.717Z,17.67
2018-11-22T21:18:07.330Z,16.45
2018-11-22T21:20:38.094Z,15.15
2018-11-22T21:23:07.386Z,15.32
2018-11-22T21:25:36.625Z,13.88
2018-11-22T21:28:06.378Z,15.10
2018-11-22T21:30:37.054Z,14.00
2018-11-22T21:33:06.403Z,15.90
2018-11-22T21:35:36.134Z,15.03
2018-11-22T21:38:06.443Z,14.47
2018-11-22T21:40:36.077Z,15.70
2018-11-22T21:43:05.674Z,15.23
2018-11-22T21:45:35.491Z,15.90
2018-11-22T21:48:05.545Z,14.33
2018-11-22T21:50:34.818Z,15.72
2018-11-22T21:53:04.020Z,15.75
2018-11-22T21:55:33.263Z,16.60
2018-11-22T21:58:03.102Z,17.30
2018-11-22T22:00:37.123Z,17.37
2018-11-22T22:03:08.145Z,15.80
2018-11-22T22:05:37.575Z,16.07
2018-11-22T22:08:07.074Z,16.25
2018-11-22T22:10:36.306Z,15.93
2018-11-22T22:13:05.661Z,17.10
2018-11-22T22:15:35.765Z,14.25
2018-11-22T22:18:05.981Z,16.93
2018-11-22T22:20:36.237Z,17.62
2018-11-22T22:23:07.135Z,15.53
2018-11-22T22:25:35.283Z,16.20
2018-11-22T22:28:04.541Z,14.23
2018-11-22T22:30:34.671Z,14.18
2018-11-22T22:33:05.266Z,15.48
2018-11-22T22:35:34.499Z,15.78
2018-11-22T22:38:03.701Z,15.48
2018-11-22T22:40:33.509Z,15.30
2018-11-22T22:43:02.713Z,17.75
2018-11-22T22:45:32.622Z,17.85
2018-11-22T22:48:01.854Z,15.72
2018-11-22T22:50:31.614Z,17.70
2018-11-22T22:53:01.310Z,17.40
2018-11-22T22:55:31.141Z,15.20
2018-11-22T22:58:00.352Z,16.20
2018-11-22T23:00:34.997Z,16.27
2018-11-22T23:03:05.800Z,15.75
2018-11-22T23:05:35.289Z,16.55
2018-11-22T23:08:04.489Z,16.77
2018-11-22T23:10:33.706Z,16.97
2018-11-22T23:13:02.931Z,17.20
2018-11-22T23:15:32.699Z,17.05
2018-11-22T23:18:01.906Z,15.58
2018-11-22T23:20:34.463Z,16.15
2018-11-22T23:23:03.735Z,16.55
2018-11-22T23:25:32.954Z,16.77
2018-11-22T23:28:02.180Z,16.75
2018-11-22T23:30:33.522Z,17.87
2018-11-22T23:33:04.226Z,17.07
2018-11-22T23:35:33.510Z,16.45
2018-11-22T23:38:02.719Z,16.57
2018-11-22T23:40:32.773Z,16.55
2018-11-22T23:43:01.983Z,15.72
2018-11-22T23:45:32.174Z,18.70
2018-11-22T23:48:01.394Z,17.25
2018-11-22T23:50:31.721Z,15.83
2018-11-22T23:53:02.020Z,16.27
2018-11-22T23:55:31.291Z,15.00
2018-11-22T23:58:00.496Z,15.72
